Time;durP1;ratioP1;P1;durP2;ratioP2;P2;SDS_P1;SDS_P2;PMS_P1;PMS_P2;Temp;Humidity;BMP_temperature;BMP_pressure;BME280_temperature;BME280_humidity;BME280_pressure;Samples;Min_cycle;Max_cycle;Signal;HPM_P1;HPM_P2
2022/11/21 00:00:52;;;;;;;29.80;17.20;;;1.40;99.90;;;;;;6162470;23;20515;-86
2022/11/21 00:03:19;;;;;;;28.00;16.70;;;1.40;99.90;;;;;;6137213;23;20017;-87
2022/11/21 00:05:47;;;;;;;27.52;15.82;;;1.40;99.90;;;;;;6137456;23;20016;-85
2022/11/21 00:08:15;;;;;;;25.42;16.13;;;1.40;99.90;;;;;;6137594;23;20070;-86
2022/11/21 00:10:41;;;;;;;24.58;15.65;;;1.40;99.90;;;;;;6137522;23;20460;-86
2022/11/21 00:13:15;;;;;;;22.65;14.85;;;1.40;99.90;;;;;;6135905;23;20017;-86
2022/11/21 00:15:41;;;;;;;26.33;15.73;;;1.40;99.90;;;;;;6139468;23;20017;-86
2022/11/21 00:18:06;;;;;;;25.33;15.68;;;1.40;99.90;;;;;;6161110;23;20108;-86
2022/11/21 00:20:35;;;;;;;26.33;17.00;;;1.40;99.90;;;;;;6137560;23;20024;-86
2022/11/21 00:23:01;;;;;;;24.08;15.23;;;1.40;99.90;;;;;;6135913;23;20614;-86
2022/11/21 00:25:27;;;;;;;27.75;16.10;;;1.40;99.90;;;;;;6162406;23;20288;-86
2022/11/21 00:27:52;;;;;;;27.98;16.30;;;1.30;99.90;;;;;;6136542;23;20020;-86
2022/11/21 00:30:18;;;;;;;24.17;15.38;;;1.30;99.90;;;;;;6138749;23;20052;-86
2022/11/21 00:32:44;;;;;;;27.80;16.45;;;1.30;99.90;;;;;;6138743;23;20163;-86
2022/11/21 00:35:09;;;;;;;26.88;16.10;;;1.30;99.90;;;;;;6137677;23;20405;-86
2022/11/21 00:37:35;;;;;;;28.15;17.05;;;1.30;99.90;;;;;;6135824;23;20775;-86
2022/11/21 00:40:01;;;;;;;25.98;16.67;;;1.20;99.90;;;;;;6162054;23;20023;-86
2022/11/21 00:42:26;;;;;;;27.50;16.98;;;1.20;99.90;;;;;;6160872;23;20077;-87
2022/11/21 00:44:52;;;;;;;26.90;16.00;;;1.10;99.90;;;;;;6137610;23;20048;-86
2022/11/21 00:47:18;;;;;;;30.25;17.52;;;1.20;99.90;;;;;;6137569;23;20433;-86
2022/11/21 00:49:43;;;;;;;29.30;17.15;;;1.20;99.90;;;;;;6137601;23;20096;-85
2022/11/21 00:52:09;;;;;;;29.15;17.20;;;1.10;99.90;;;;;;6138042;23;20096;-86
2022/11/21 00:54:38;;;;;;;29.48;17.65;;;1.10;99.90;;;;;;6161485;23;20013;-86
2022/11/21 00:57:03;;;;;;;29.20;17.10;;;1.10;99.90;;;;;;6162709;23;20231;-86
2022/11/21 00:59:29;;;;;;;25.85;16.50;;;1.10;99.90;;;;;;6162070;22;20035;-86
2022/11/21 01:01:55;;;;;;;27.35;16.90;;;1.10;99.90;;;;;;6135863;23;20166;-85
2022/11/21 01:04:20;;;;;;;26.23;16.40;;;1.00;99.90;;;;;;6136947;23;20021;-86
2022/11/21 01:06:46;;;;;;;26.00;15.63;;;1.00;99.90;;;;;;6161134;23;20078;-86
2022/11/21 01:09:12;;;;;;;24.17;15.10;;;0.90;99.90;;;;;;6136979;23;20024;-87
2022/11/21 01:11:37;;;;;;;25.70;15.85;;;0.80;99.90;;;;;;6161399;23;20453;-86
2022/11/21 01:14:04;;;;;;;23.02;14.98;;;0.80;99.90;;;;;;6137735;23;20070;-86
2022/11/21 01:16:30;;;;;;;26.33;15.93;;;0.70;99.90;;;;;;6137966;23;20393;-86
2022/11/21 01:18:56;;;;;;;24.75;16.13;;;0.60;99.90;;;;;;6136938;23;20457;-87
2022/11/21 01:21:30;;;;;;;27.67;15.32;;;0.60;99.90;;;;;;6160776;23;20066;-86
2022/11/21 01:24:00;;;;;;;27.30;17.02;;;0.50;99.90;;;;;;6137617;23;20049;-87
2022/11/21 01:26:28;;;;;;;30.98;16.77;;;0.50;99.90;;;;;;6136900;23;20021;-86
2022/11/21 01:28:54;;;;;;;31.88;17.55;;;0.50;99.90;;;;;;6137138;23;20081;-86
2022/11/21 01:31:25;;;;;;;31.10;18.02;;;0.50;99.90;;;;;;6138160;22;20017;-87
2022/11/21 01:33:51;;;;;;;30.30;18.25;;;0.50;99.90;;;;;;6137180;23;20354;-87
2022/11/21 01:36:37;;;;;;;33.17;18.73;;;0.40;99.90;;;;;;6162095;23;20021;-87
2022/11/21 01:39:05;;;;;;;29.02;17.20;;;0.30;99.90;;;;;;6137101;23;20021;-87
2022/11/21 01:41:37;;;;;;;26.08;15.50;;;0.20;99.90;;;;;;6137016;23;20251;-87
2022/11/21 01:44:20;;;;;;;24.10;15.43;;;0.20;99.90;;;;;;6136309;23;20398;-86
2022/11/21 01:46:47;;;;;;;26.70;16.88;;;0.10;99.90;;;;;;6162634;23;20009;-86
2022/11/21 01:49:24;;;;;;;26.48;16.75;;;0.00;99.90;;;;;;6137331;23;20458;-87
2022/11/21 01:52:00;;;;;;;25.92;16.20;;;-0.10;99.90;;;;;;6162342;23;20395;-86
2022/11/21 01:54:29;;;;;;;27.08;16.35;;;-0.10;99.90;;;;;;6160943;23;20017;-86
2022/11/21 01:57:04;;;;;;;28.58;17.52;;;-0.20;99.90;;;;;;6135789;23;20024;-86
2022/11/21 01:59:48;;;;;;;28.23;17.17;;;-0.20;99.90;;;;;;6137527;23;20331;-86
2022/11/21 02:02:18;;;;;;;29.30;17.13;;;-0.20;99.90;;;;;;6136728;23;20028;-86
2022/11/21 02:04:45;;;;;;;30.92;17.35;;;-0.30;99.90;;;;;;6161743;23;20098;-86
2022/11/21 02:07:13;;;;;;;29.45;17.08;;;-0.40;99.90;;;;;;6136925;23;20448;-86
2022/11/21 02:09:42;;;;;;;26.95;17.05;;;-0.30;99.90;;;;;;6135288;23;20380;-85
2022/11/21 02:12:22;;;;;;;29.02;16.48;;;-0.40;99.90;;;;;;6138033;23;20009;-86
2022/11/21 02:14:49;;;;;;;30.95;17.13;;;-0.40;99.90;;;;;;6137129;23;20020;-85
2022/11/21 02:17:18;;;;;;;31.58;18.88;;;-0.40;99.90;;;;;;6161736;23;20516;-86
2022/11/21 02:19:59;;;;;;;35.15;19.13;;;-0.40;99.90;;;;;;6161168;23;20350;-85
2022/11/21 02:22:55;;;;;;;31.05;17.92;;;-0.50;99.90;;;;;;6134804;23;20091;-86
2022/11/21 02:25:33;;;;;;;31.25;18.17;;;-0.50;99.90;;;;;;6136736;23;20443;-85
2022/11/21 02:28:09;;;;;;;30.45;18.90;;;-0.50;99.90;;;;;;6160839;23;20017;-85
2022/11/21 02:30:38;;;;;;;30.20;17.98;;;-0.50;99.90;;;;;;6137160;23;20332;-85
2022/11/21 02:33:05;;;;;;;29.95;17.95;;;-0.60;99.90;;;;;;6136017;23;20035;-86
2022/11/21 02:35:32;;;;;;;31.25;17.90;;;-0.70;99.90;;;;;;6136566;23;20099;-85
2022/11/21 02:38:10;;;;;;;32.28;19.02;;;-0.60;99.90;;;;;;6135362;23;20444;-85
2022/11/21 02:40:42;;;;;;;31.58;19.20;;;-0.60;99.90;;;;;;6137331;23;20017;-86
2022/11/21 02:43:23;;;;;;;35.30;19.00;;;-0.70;99.90;;;;;;6136383;23;20139;-86
2022/11/21 02:45:49;;;;;;;31.92;19.27;;;-0.80;99.90;;;;;;6138280;23;20051;-85
2022/11/21 02:48:14;;;;;;;31.00;18.45;;;-0.80;99.90;;;;;;6160989;23;20399;-85
2022/11/21 02:50:45;;;;;;;30.38;18.30;;;-0.70;99.90;;;;;;6137509;23;20092;-86
2022/11/21 02:53:13;;;;;;;28.92;17.30;;;-0.80;99.90;;;;;;6135916;23;20021;-86
2022/11/21 02:55:39;;;;;;;33.53;17.35;;;-0.80;99.90;;;;;;6160779;23;20017;-87
2022/11/21 02:58:05;;;;;;;30.98;18.70;;;-0.70;99.90;;;;;;6135081;23;20182;-85
2022/11/21 03:00:37;;;;;;;29.02;16.73;;;-0.90;99.90;;;;;;6137493;23;20409;-86
2022/11/21 03:03:06;;;;;;;29.33;17.98;;;-0.90;99.90;;;;;;6135160;23;20082;-87
2022/11/21 03:05:41;;;;;;;35.65;17.55;;;-0.90;99.90;;;;;;6136144;23;20009;-86
2022/11/21 03:08:06;;;;;;;33.33;18.65;;;-1.00;99.90;;;;;;6135887;23;20365;-86
2022/11/21 03:10:32;;;;;;;32.80;19.63;;;-0.90;99.90;;;;;;6135691;23;20047;-85
2022/11/21 03:13:01;;;;;;;29.50;19.45;;;-1.00;99.90;;;;;;6136286;23;20207;-85
2022/11/21 03:15:29;;;;;;;31.83;18.92;;;-1.00;99.90;;;;;;6160767;23;20013;-86
2022/11/21 03:17:56;;;;;;;31.55;19.48;;;-0.90;99.90;;;;;;6134750;23;20326;-86
2022/11/21 03:20:22;;;;;;;29.75;17.98;;;-1.10;99.90;;;;;;6137887;23;20013;-85
2022/11/21 03:22:48;;;;;;;33.30;19.42;;;-1.10;99.90;;;;;;6133586;23;20620;-85
2022/11/21 03:25:14;;;;;;;35.35;19.95;;;-1.00;99.90;;;;;;6136258;23;20438;-86
2022/11/21 03:27:39;;;;;;;35.67;20.00;;;-1.00;99.90;;;;;;6135381;23;20048;-85
2022/11/21 03:30:06;;;;;;;39.42;20.17;;;-1.20;99.90;;;;;;6133298;23;20013;-86
2022/11/21 03:32:31;;;;;;;36.03;20.20;;;-1.10;99.90;;;;;;6158972;23;20146;-86
2022/11/21 03:34:57;;;;;;;34.60;20.75;;;-1.10;99.90;;;;;;6162886;23;20418;-85
2022/11/21 03:37:22;;;;;;;33.65;20.42;;;-1.20;99.90;;;;;;6160952;23;20117;-85
2022/11/21 03:39:48;;;;;;;35.67;19.40;;;-1.30;99.90;;;;;;6162140;23;20020;-85
2022/11/21 03:42:14;;;;;;;35.40;18.63;;;-1.30;99.90;;;;;;6137252;23;20306;-86
2022/11/21 03:44:39;;;;;;;30.25;17.45;;;-1.30;99.90;;;;;;6138737;23;20151;-87
2022/11/21 03:47:05;;;;;;;30.50;18.25;;;-1.30;99.90;;;;;;6138681;23;20013;-86
2022/11/21 03:49:31;;;;;;;34.63;20.27;;;-1.50;99.90;;;;;;6137175;23;20013;-85
2022/11/21 03:51:56;;;;;;;33.25;19.20;;;-1.30;99.90;;;;;;6161855;23;20013;-86
2022/11/21 03:54:22;;;;;;;36.50;20.33;;;-1.20;99.90;;;;;;6136979;23;20021;-86
2022/11/21 03:56:47;;;;;;;33.22;19.50;;;-1.20;99.90;;;;;;6138808;23;20515;-87
2022/11/21 03:59:13;;;;;;;33.28;20.30;;;-1.30;99.90;;;;;;6163111;23;20395;-86
2022/11/21 04:01:41;;;;;;;35.10;19.85;;;-1.30;99.90;;;;;;6137401;23;20541;-85
2022/11/21 04:04:07;;;;;;;40.35;21.67;;;-1.30;99.90;;;;;;6162513;23;20025;-86
2022/11/21 04:06:33;;;;;;;39.78;21.58;;;-1.30;99.90;;;;;;6137403;23;20009;-86
2022/11/21 04:08:58;;;;;;;42.08;21.80;;;-1.40;99.90;;;;;;6162216;23;20021;-86
2022/11/21 04:11:24;;;;;;;40.15;22.45;;;-1.40;99.90;;;;;;6136300;23;20468;-86
2022/11/21 04:13:50;;;;;;;39.67;21.77;;;-1.30;99.90;;;;;;6137502;23;20021;-86
2022/11/21 04:16:16;;;;;;;41.33;22.10;;;-1.30;99.90;;;;;;6138338;23;20017;-86
2022/11/21 04:18:42;;;;;;;39.83;22.98;;;-1.40;99.90;;;;;;6137638;23;20095;-86
2022/11/21 04:21:08;;;;;;;37.47;21.13;;;-1.40;99.90;;;;;;6136599;23;20020;-87
2022/11/21 04:23:34;;;;;;;39.13;20.33;;;-1.50;99.90;;;;;;6160502;23;20021;-86
2022/11/21 04:26:00;;;;;;;36.55;20.90;;;-1.50;99.90;;;;;;6138374;23;20305;-85
2022/11/21 04:28:26;;;;;;;38.80;21.00;;;-1.40;99.90;;;;;;6136928;23;20020;-87
2022/11/21 04:30:52;;;;;;;40.58;21.25;;;-1.60;99.90;;;;;;6162663;23;20017;-86
2022/11/21 04:33:18;;;;;;;37.25;20.77;;;-1.50;99.90;;;;;;6137047;23;20028;-85
2022/11/21 04:35:47;;;;;;;34.13;19.70;;;-1.60;99.90;;;;;;6162458;23;20024;-86
2022/11/21 04:38:14;;;;;;;38.78;20.85;;;-1.60;99.90;;;;;;6136741;23;20060;-85
2022/11/21 04:40:39;;;;;;;35.65;21.27;;;-1.70;99.90;;;;;;6137499;23;20017;-85
2022/11/21 04:43:05;;;;;;;38.55;21.42;;;-1.60;99.90;;;;;;6162946;23;20023;-86
2022/11/21 04:45:31;;;;;;;36.85;21.70;;;-1.70;99.90;;;;;;6137941;23;20058;-86
2022/11/21 04:47:57;;;;;;;35.45;20.48;;;-1.70;99.90;;;;;;6136133;23;20049;-86
2022/11/21 04:50:23;;;;;;;37.50;20.80;;;-1.60;99.90;;;;;;6162538;23;20498;-86
2022/11/21 04:52:54;;;;;;;35.92;20.52;;;-1.70;99.90;;;;;;6136193;23;20097;-87
2022/11/21 04:55:22;;;;;;;43.58;23.80;;;-1.70;99.90;;;;;;6137182;23;20013;-85
2022/11/21 04:57:47;;;;;;;40.17;22.48;;;-1.60;99.90;;;;;;6136883;23;20060;-85
2022/11/21 05:00:14;;;;;;;39.95;22.50;;;-1.60;99.90;;;;;;6137499;23;20036;-86
2022/11/21 05:02:40;;;;;;;41.08;22.63;;;-1.60;99.90;;;;;;6136272;23;20086;-86
2022/11/21 05:05:09;;;;;;;40.25;23.00;;;-1.70;99.90;;;;;;6137376;23;20025;-85
2022/11/21 05:07:35;;;;;;;40.28;22.23;;;-1.50;99.90;;;;;;6136472;23;20199;-85
2022/11/21 05:10:01;;;;;;;40.15;22.60;;;-1.70;99.90;;;;;;6162239;23;20143;-86
2022/11/21 05:15:11;;;;;;;39.60;22.43;;;-1.80;99.90;;;;;;6162180;23;20083;-86
2022/11/21 05:17:36;;;;;;;41.30;21.92;;;-1.70;99.90;;;;;;6161868;23;20422;-86
2022/11/21 05:20:03;;;;;;;42.30;22.60;;;-1.80;99.90;;;;;;6138020;23;20021;-86
2022/11/21 05:22:28;;;;;;;35.65;20.42;;;-1.70;99.90;;;;;;6136203;23;20017;-86
2022/11/21 05:24:54;;;;;;;40.97;22.45;;;-1.70;99.90;;;;;;6136553;23;20362;-86
2022/11/21 05:27:20;;;;;;;41.28;22.88;;;-1.70;99.90;;;;;;6162590;23;20568;-86
2022/11/21 05:29:45;;;;;;;42.97;24.02;;;-1.70;99.90;;;;;;6138583;23;20449;-86
2022/11/21 05:32:11;;;;;;;42.85;23.40;;;-1.80;99.90;;;;;;6138129;23;20354;-87
2022/11/21 05:34:37;;;;;;;47.75;24.05;;;-1.70;99.90;;;;;;6136720;23;20017;-85
2022/11/21 05:37:03;;;;;;;43.58;24.05;;;-1.70;99.90;;;;;;6161400;23;20048;-86
2022/11/21 05:39:29;;;;;;;47.47;24.95;;;-1.60;99.90;;;;;;6161998;23;20028;-85
2022/11/21 05:41:57;;;;;;;42.95;23.35;;;-1.60;99.90;;;;;;6137520;23;20448;-86
2022/11/21 05:44:23;;;;;;;47.70;25.75;;;-1.70;99.90;;;;;;6137207;23;20074;-85
2022/11/21 05:46:49;;;;;;;46.50;25.20;;;-1.60;99.90;;;;;;6161936;23;20100;-86
2022/11/21 05:49:14;;;;;;;44.00;24.05;;;-1.60;99.90;;;;;;6138083;23;20217;-86
2022/11/21 05:51:40;;;;;;;46.63;23.45;;;-1.70;99.90;;;;;;6136985;23;20017;-86
2022/11/21 05:54:05;;;;;;;41.15;21.85;;;-1.80;99.90;;;;;;6137759;23;20021;-86
2022/11/21 05:56:31;;;;;;;41.75;22.75;;;-1.70;99.90;;;;;;6137861;23;20016;-87
2022/11/21 05:58:58;;;;;;;42.42;23.33;;;-1.60;99.90;;;;;;6137481;22;20094;-86
2022/11/21 06:04:09;;;;;;;43.03;22.45;;;-1.80;99.90;;;;;;6161080;23;20025;-86
2022/11/21 06:06:36;;;;;;;44.47;24.13;;;-1.80;99.90;;;;;;6135874;23;20484;-87
2022/11/21 06:09:03;;;;;;;44.30;25.02;;;-2.00;99.90;;;;;;6136666;23;20049;-86
2022/11/21 06:11:28;;;;;;;45.10;25.35;;;-1.90;99.90;;;;;;6137436;23;20025;-86
2022/11/21 06:13:57;;;;;;;49.55;27.50;;;-1.80;99.90;;;;;;6138752;23;20219;-86
2022/11/21 06:16:23;;;;;;;55.47;29.42;;;-1.90;99.90;;;;;;6267145;22;20024;-85
2022/11/21 06:18:51;;;;;;;46.80;27.65;;;-1.90;99.90;;;;;;6136490;23;20013;-86
2022/11/21 06:21:27;;;;;;;55.53;28.13;;;-2.00;99.90;;;;;;6135884;23;20565;-84
2022/11/21 06:23:54;;;;;;;47.15;27.40;;;-1.90;99.90;;;;;;6136930;23;20013;-86
2022/11/21 06:26:22;;;;;;;49.30;27.55;;;-1.90;99.90;;;;;;6137321;23;20145;-86
2022/11/21 06:28:49;;;;;;;46.92;28.73;;;-2.00;99.90;;;;;;6136492;23;20177;-86
2022/11/21 06:31:21;;;;;;;48.40;26.45;;;-2.00;99.90;;;;;;6136678;23;20023;-86
2022/11/21 06:33:51;;;;;;;47.10;25.35;;;-2.10;99.90;;;;;;6137171;23;20017;-86
2022/11/21 06:36:17;;;;;;;49.05;26.15;;;-2.00;99.90;;;;;;6137322;23;20017;-86
2022/11/21 06:38:46;;;;;;;44.30;23.50;;;-2.00;99.90;;;;;;6135744;23;20423;-86
2022/11/21 06:41:12;;;;;;;45.00;22.60;;;-2.00;99.90;;;;;;6136140;23;20394;-86
2022/11/21 06:43:39;;;;;;;42.58;22.30;;;-2.10;99.90;;;;;;6134326;23;20173;-85
2022/11/21 06:46:05;;;;;;;40.00;21.60;;;-2.10;99.90;;;;;;6136426;23;20013;-86
2022/11/21 06:48:31;;;;;;;45.50;22.63;;;-2.10;99.90;;;;;;6135487;23;20507;-86
2022/11/21 06:50:57;;;;;;;43.67;23.60;;;-2.20;99.90;;;;;;6135520;23;20017;-87
2022/11/21 06:53:26;;;;;;;41.22;21.52;;;-2.10;99.90;;;;;;6159810;23;20101;-85
2022/11/21 06:55:51;;;;;;;48.10;22.75;;;-2.10;99.90;;;;;;6135453;23;20044;-86
2022/11/21 06:58:17;;;;;;;43.42;22.58;;;-2.00;99.90;;;;;;6136432;23;20360;-86
2022/11/21 07:00:43;;;;;;;46.80;22.90;;;-2.20;99.90;;;;;;6161660;23;20028;-86
2022/11/21 07:03:09;;;;;;;43.78;23.00;;;-2.10;99.90;;;;;;6135819;23;20017;-85
2022/11/21 07:05:34;;;;;;;45.80;22.25;;;-2.20;99.90;;;;;;6138235;23;20055;-85
2022/11/21 07:08:05;;;;;;;49.30;23.48;;;-2.20;99.90;;;;;;6134672;23;20113;-86
2022/11/21 07:10:33;;;;;;;39.42;21.40;;;-2.20;99.90;;;;;;6137853;23;20101;-85
2022/11/21 07:15:44;;;;;;;46.17;23.63;;;-2.10;99.90;;;;;;6162402;23;20504;-86
2022/11/21 07:18:11;;;;;;;44.75;22.77;;;-2.20;99.90;;;;;;6160811;23;20024;-86
2022/11/21 07:20:37;;;;;;;41.15;22.23;;;-2.20;99.90;;;;;;6137477;23;20013;-85
2022/11/21 07:23:03;;;;;;;42.70;23.15;;;-2.20;99.90;;;;;;6135632;23;20017;-86
2022/11/21 07:25:29;;;;;;;47.75;22.63;;;-2.10;99.90;;;;;;6138357;23;20688;-86
2022/11/21 07:27:58;;;;;;;46.63;23.50;;;-2.20;99.90;;;;;;6161170;23;20017;-86
2022/11/21 07:30:24;;;;;;;47.78;22.42;;;-2.00;99.90;;;;;;6137771;23;20494;-86
2022/11/21 07:33:09;;;;;;;49.40;23.88;;;-2.10;99.90;;;;;;6136751;23;20266;-87
2022/11/21 07:35:35;;;;;;;44.25;22.90;;;-2.00;99.90;;;;;;6161187;23;20065;-86
2022/11/21 07:38:02;;;;;;;52.28;25.42;;;-2.00;99.90;;;;;;6135406;23;20495;-85
2022/11/21 07:40:28;;;;;;;44.47;23.83;;;-2.10;99.90;;;;;;6161884;23;20020;-86
2022/11/21 07:42:59;;;;;;;45.92;23.48;;;-2.00;99.90;;;;;;6135592;23;20354;-86
2022/11/21 07:45:25;;;;;;;52.45;26.15;;;-1.90;99.90;;;;;;6162393;23;20094;-86
2022/11/21 07:47:57;;;;;;;54.80;25.85;;;-1.80;99.90;;;;;;6160232;23;20367;-86
2022/11/21 07:50:22;;;;;;;46.80;23.05;;;-1.80;99.90;;;;;;6161728;23;20286;-85
2022/11/21 07:52:48;;;;;;;48.70;24.30;;;-1.70;99.90;;;;;;6134721;23;20017;-87
2022/11/21 07:55:14;;;;;;;56.00;28.60;;;-1.70;99.90;;;;;;6135923;23;20025;-87
2022/11/21 07:57:40;;;;;;;55.47;28.45;;;-1.70;99.90;;;;;;6135593;23;20100;-85
2022/11/21 08:00:06;;;;;;;50.55;25.75;;;-1.70;99.90;;;;;;6161535;23;20093;-86
2022/11/21 08:02:32;;;;;;;53.42;26.90;;;-1.60;99.90;;;;;;6136918;23;20024;-87
2022/11/21 08:04:58;;;;;;;48.38;25.20;;;-1.50;99.90;;;;;;6135245;22;20017;-86
2022/11/21 08:07:23;;;;;;;52.15;25.60;;;-1.60;99.90;;;;;;6134779;23;20020;-87
2022/11/21 08:09:49;;;;;;;56.25;26.20;;;-1.50;99.90;;;;;;6136787;23;20017;-86
2022/11/21 08:12:15;;;;;;;51.83;27.00;;;-1.50;99.90;;;;;;6135106;23;20021;-86
2022/11/21 08:14:41;;;;;;;52.05;25.77;;;-1.30;99.90;;;;;;6135817;23;20272;-86
2022/11/21 08:17:07;;;;;;;53.95;25.13;;;-1.30;99.90;;;;;;6136711;23;20086;-86
2022/11/21 08:19:33;;;;;;;59.20;25.67;;;-1.30;99.90;;;;;;6136570;23;20438;-86
2022/11/21 08:21:59;;;;;;;54.78;26.90;;;-1.30;99.90;;;;;;6138043;23;20021;-86
2022/11/21 08:24:25;;;;;;;50.80;26.02;;;-1.20;99.90;;;;;;6137773;23;20336;-86
2022/11/21 08:26:52;;;;;;;52.67;26.80;;;-0.90;99.90;;;;;;6137401;23;20024;-86
2022/11/21 08:29:18;;;;;;;59.05;29.10;;;-0.90;99.90;;;;;;6137068;23;20294;-86
2022/11/21 08:31:44;;;;;;;56.58;27.73;;;-0.80;99.90;;;;;;6162400;23;20438;-86
2022/11/21 08:34:10;;;;;;;54.55;26.90;;;-0.80;99.90;;;;;;6137532;23;20021;-86
2022/11/21 08:36:36;;;;;;;58.63;27.77;;;-0.60;99.90;;;;;;6135259;23;20021;-87
2022/11/21 08:39:02;;;;;;;53.83;26.45;;;-0.40;99.90;;;;;;6162369;23;20354;-87
2022/11/21 08:44:11;;;;;;;54.43;27.63;;;-0.20;99.90;;;;;;6161602;23;20032;-86
2022/11/21 08:46:37;;;;;;;52.38;26.77;;;0.00;99.90;;;;;;6163199;23;20241;-86
2022/11/21 08:49:03;;;;;;;54.08;26.83;;;0.10;99.90;;;;;;6136737;23;20021;-86
2022/11/21 08:51:29;;;;;;;57.17;27.63;;;0.30;99.90;;;;;;6136014;23;20013;-87
2022/11/21 08:53:55;;;;;;;54.30;27.17;;;0.30;99.90;;;;;;6136922;23;20528;-85
2022/11/21 08:56:21;;;;;;;49.55;25.45;;;0.40;99.90;;;;;;6136866;23;20060;-86
2022/11/21 08:58:47;;;;;;;48.70;25.48;;;0.50;99.90;;;;;;6161953;23;20569;-87
2022/11/21 09:01:12;;;;;;;49.67;25.10;;;0.50;99.90;;;;;;6137570;23;20024;-85
2022/11/21 09:03:38;;;;;;;45.22;25.52;;;0.60;99.90;;;;;;6137114;23;20426;-86
2022/11/21 09:06:04;;;;;;;45.15;23.88;;;0.70;99.90;;;;;;6137125;23;20089;-87
2022/11/21 09:08:30;;;;;;;43.97;23.98;;;0.70;99.90;;;;;;6160855;23;20009;-86
2022/11/21 09:11:05;;;;;;;41.85;23.60;;;0.80;99.90;;;;;;6137186;23;20012;-87
2022/11/21 09:13:32;;;;;;;42.47;23.90;;;0.80;99.90;;;;;;6137514;23;20013;-86
2022/11/21 09:18:45;;;;;;;;;;;0.90;99.90;;;;;;6162718;23;20021;-86
2022/11/21 09:21:18;;;;;;;42.92;22.15;;;1.00;99.90;;;;;;6137129;22;19943;-87
2022/11/21 09:23:44;;;;;;;38.10;22.85;;;1.00;99.90;;;;;;6161211;23;20096;-86
2022/11/21 09:26:13;;;;;;;42.10;22.95;;;1.00;99.90;;;;;;6137149;23;20025;-87
2022/11/21 09:28:40;;;;;;;40.35;22.55;;;1.00;99.90;;;;;;6136585;23;20066;-86
2022/11/21 09:31:06;;;;;;;38.38;22.25;;;1.10;99.90;;;;;;6136729;23;20049;-87
2022/11/21 09:33:32;;;;;;;39.15;22.15;;;1.20;99.90;;;;;;6161189;23;20425;-88
2022/11/21 09:35:58;;;;;;;37.67;22.02;;;1.30;99.90;;;;;;6162286;23;20114;-87
2022/11/21 09:38:28;;;;;;;39.85;21.88;;;1.20;99.90;;;;;;6136849;23;20258;-86
2022/11/21 09:44:34;;;;;;;37.13;21.67;;;1.30;99.90;;;;;;6167399;23;20025;-87
2022/11/21 09:47:17;;;;;;;44.55;22.75;;;1.30;99.90;;;;;;6162638;23;20017;-87
2022/11/21 09:49:48;;;;;;;37.58;20.88;;;1.40;99.90;;;;;;6136273;23;20090;-86
2022/11/21 09:52:21;;;;;;;41.67;22.17;;;1.50;99.90;;;;;;6137211;23;20389;-86
2022/11/21 09:54:56;;;;;;;41.92;23.20;;;1.50;99.90;;;;;;6137517;23;20094;-86
2022/11/21 09:57:24;;;;;;;39.47;22.27;;;1.40;99.90;;;;;;6136469;23;20426;-84
2022/11/21 09:59:51;;;;;;;40.35;22.13;;;1.50;99.90;;;;;;6137398;23;20020;-84
2022/11/21 10:02:19;;;;;;;37.40;21.92;;;1.60;99.90;;;;;;6162368;23;20017;-84
2022/11/21 10:04:46;;;;;;;38.25;21.48;;;1.60;99.90;;;;;;6135936;23;20059;-85
2022/11/21 10:07:20;;;;;;;35.55;20.00;;;1.60;99.90;;;;;;6161795;23;20009;-84
2022/11/21 10:10:13;;;;;;;37.22;21.90;;;1.70;99.90;;;;;;6161768;23;20056;-85
2022/11/21 10:13:10;;;;;;;36.45;21.58;;;1.80;99.90;;;;;;6136887;23;20017;-86
2022/11/21 10:16:07;;;;;;;38.88;20.55;;;1.70;99.90;;;;;;6140432;23;20481;-85
2022/11/21 10:18:50;;;;;;;33.83;19.67;;;1.70;99.90;;;;;;6161980;23;20609;-85
2022/11/21 10:21:46;;;;;;;34.38;20.65;;;1.70;99.90;;;;;;6160184;23;20025;-86
2022/11/21 10:24:33;;;;;;;33.13;21.27;;;1.80;99.90;;;;;;6161173;23;20017;-86
2022/11/21 10:27:11;;;;;;;35.47;20.83;;;2.00;99.90;;;;;;6135603;23;20075;-85
2022/11/21 10:29:52;;;;;;;35.17;20.60;;;1.90;99.90;;;;;;6136628;23;20106;-85
2022/11/21 10:32:20;;;;;;;33.60;19.98;;;1.90;99.90;;;;;;6138018;23;20024;-85
2022/11/21 10:34:50;;;;;;;33.15;20.13;;;2.00;99.90;;;;;;6136079;23;20021;-85
2022/11/21 10:37:31;;;;;;;34.83;20.77;;;2.10;99.90;;;;;;6135560;23;20378;-86
2022/11/21 10:40:06;;;;;;;37.20;20.05;;;2.00;99.90;;;;;;6136847;23;20393;-86
2022/11/21 10:42:44;;;;;;;33.03;19.52;;;2.10;99.90;;;;;;6136338;23;20296;-86
2022/11/21 10:45:16;;;;;;;33.50;19.17;;;2.20;99.90;;;;;;6136861;23;20458;-85
2022/11/21 10:47:47;;;;;;;33.95;18.90;;;2.20;99.90;;;;;;6161759;23;20337;-86
2022/11/21 10:50:24;;;;;;;32.35;19.48;;;2.20;99.90;;;;;;6137579;23;20013;-85
2022/11/21 10:56:05;;;;;;;29.98;17.77;;;2.40;99.90;;;;;;6162888;23;20023;-85
2022/11/21 10:58:39;;;;;;;29.88;17.63;;;2.40;99.90;;;;;;6136961;23;20228;-86
2022/11/21 11:01:04;;;;;;;30.73;17.75;;;2.30;99.90;;;;;;6137248;23;20016;-86
2022/11/21 11:03:32;;;;;;;31.38;18.52;;;2.40;99.90;;;;;;6161590;23;20442;-87
2022/11/21 11:05:57;;;;;;;30.90;18.23;;;2.40;99.90;;;;;;6135894;23;20009;-87
2022/11/21 11:08:23;;;;;;;26.88;16.90;;;2.40;99.90;;;;;;6160956;23;20009;-87
2022/11/21 11:11:13;;;;;;;27.65;16.88;;;2.40;99.90;;;;;;6137833;23;20021;-87
2022/11/21 11:14:00;;;;;;;27.25;16.75;;;2.40;99.90;;;;;;6160347;23;20025;-86
2022/11/21 11:16:28;;;;;;;28.77;17.15;;;2.40;99.90;;;;;;6163300;23;20100;-84
2022/11/21 11:19:19;;;;;;;28.35;17.05;;;2.40;99.90;;;;;;6135969;23;20319;-86
2022/11/21 11:21:46;;;;;;;26.85;16.85;;;2.30;99.90;;;;;;6134692;23;20054;-86
2022/11/21 11:24:12;;;;;;;27.50;17.00;;;2.30;99.90;;;;;;6160437;23;20150;-86
2022/11/21 11:26:46;;;;;;;27.05;16.80;;;2.30;99.90;;;;;;6137170;23;20039;-86
2022/11/21 11:29:40;;;;;;;27.65;16.25;;;2.40;99.90;;;;;;6137294;23;20520;-85
2022/11/21 11:32:16;;;;;;;24.55;15.77;;;2.40;99.90;;;;;;6137715;23;20254;-86
2022/11/21 11:35:07;;;;;;;25.70;16.08;;;2.50;99.90;;;;;;6161676;23;20408;-86
2022/11/21 11:37:50;;;;;;;26.23;15.85;;;2.40;99.90;;;;;;6160158;23;20032;-86
2022/11/21 11:40:24;;;;;;;27.70;15.93;;;2.50;99.90;;;;;;6135991;23;20025;-87
2022/11/21 11:48:54;;;;;;;;;;;2.70;99.90;;;;;;6160628;23;20151;-86
2022/11/21 11:51:24;;;;;;;24.70;15.90;;;2.80;99.90;;;;;;6136560;22;19916;-85
2022/11/21 11:53:59;;;;;;;25.35;15.27;;;2.80;99.90;;;;;;6135483;23;20071;-85
2022/11/21 11:56:37;;;;;;;26.58;16.15;;;2.90;99.90;;;;;;6137357;23;20043;-86
2022/11/21 11:59:08;;;;;;;24.75;14.77;;;3.00;99.90;;;;;;6162204;23;20028;-86
2022/11/21 12:02:00;;;;;;;22.30;14.90;;;3.00;99.90;;;;;;6164393;23;20025;-87
2022/11/21 12:04:33;;;;;;;25.45;15.32;;;3.00;99.90;;;;;;6136755;23;20028;-86
2022/11/21 12:07:05;;;;;;;24.00;15.02;;;3.10;99.90;;;;;;6137254;23;20278;-86
2022/11/21 12:09:34;;;;;;;22.77;15.23;;;3.20;99.90;;;;;;6163061;23;20013;-86
2022/11/21 12:12:30;;;;;;;23.48;14.43;;;3.20;99.90;;;;;;6163009;23;20504;-86
2022/11/21 12:18:22;;;;;;;21.98;14.20;;;3.40;99.90;;;;;;6162364;23;20039;-86
2022/11/21 12:21:06;;;;;;;18.08;12.90;;;3.40;99.90;;;;;;6137897;23;20062;-87
2022/11/21 12:23:54;;;;;;;20.00;12.55;;;3.40;99.90;;;;;;6138515;23;20314;-86
2022/11/21 12:26:38;;;;;;;20.58;13.95;;;3.50;99.90;;;;;;6163347;23;20301;-87
2022/11/21 12:29:41;;;;;;;20.83;12.85;;;3.60;99.90;;;;;;6138668;23;20024;-86
2022/11/21 12:32:16;;;;;;;18.63;12.15;;;3.50;99.90;;;;;;6162863;23;20092;-86
2022/11/21 12:34:56;;;;;;;18.35;12.00;;;3.50;99.90;;;;;;6137730;23;20032;-87
2022/11/21 12:37:33;;;;;;;21.88;13.43;;;3.60;99.90;;;;;;6161968;23;20077;-86
2022/11/21 12:40:07;;;;;;;20.83;13.00;;;3.60;99.90;;;;;;6138917;23;20021;-87
2022/11/21 12:42:48;;;;;;;17.52;11.82;;;3.60;99.90;;;;;;6136548;23;20067;-87
2022/11/21 12:45:29;;;;;;;18.58;11.63;;;3.60;99.90;;;;;;6139004;23;20013;-87
2022/11/21 12:55:01;;;;;;;19.65;12.02;;;3.70;99.90;;;;;;6161505;23;20032;-87
2022/11/21 12:57:49;;;;;;;16.77;11.63;;;3.80;99.90;;;;;;6161902;23;20345;-87
2022/11/21 13:00:37;;;;;;;18.17;11.38;;;3.70;99.90;;;;;;6139413;23;20025;-86
2022/11/21 13:03:34;;;;;;;17.08;12.00;;;3.70;99.90;;;;;;6136881;23;20104;-86
2022/11/21 13:06:02;;;;;;;17.08;11.52;;;3.80;99.90;;;;;;6162529;23;20042;-86
2022/11/21 13:08:33;;;;;;;17.45;11.10;;;3.80;99.90;;;;;;6161956;23;20044;-86
2022/11/21 13:14:17;;;;;;;18.00;11.95;;;3.80;99.90;;;;;;6162613;23;20031;-85
2022/11/21 13:16:50;;;;;;;17.00;11.57;;;3.70;99.90;;;;;;6161828;23;20039;-87
2022/11/21 13:19:24;;;;;;;17.00;10.90;;;3.80;99.90;;;;;;6137180;23;20071;-87
2022/11/21 13:21:53;;;;;;;17.95;11.32;;;3.80;99.90;;;;;;6137233;23;20048;-86
2022/11/21 13:24:55;;;;;;;19.08;12.20;;;3.90;99.90;;;;;;6137745;23;20017;-86
2022/11/21 13:27:35;;;;;;;17.58;11.85;;;3.90;99.90;;;;;;6162562;23;20240;-87